sensor_id;sensor_type;location;lat;lon;timestamp;pressure;altitude;pressure_sealevel;temperature;humidity
58622;BME280;44389;51.578;5.456;2022-10-16T00:00:40;100922.97;;;11.33;100.00
58622;BME280;44389;51.578;5.456;2022-10-16T00:03:06;100926.47;;;11.35;100.00
58622;BME280;44389;51.578;5.456;2022-10-16T00:05:32;100920.34;;;11.31;100.00
58622;BME280;44389;51.578;5.456;2022-10-16T00:07:57;100920.44;;;11.34;100.00
58622;BME280;44389;51.578;5.456;2022-10-16T00:10:23;100904.03;;;11.32;100.00
58622;BME280;44389;51.578;5.456;2022-10-16T00:12:48;100912.63;;;11.31;100.00
58622;BME280;44389;51.578;5.456;2022-10-16T00:15:14;100915.97;;;11.29;100.00
58622;BME280;44389;51.578;5.456;2022-10-16T00:17:39;100921.09;;;11.27;100.00
58622;BME280;44389;51.578;5.456;2022-10-16T00:20:05;100915.97;;;11.29;100.00
58622;BME280;44389;51.578;5.456;2022-10-16T00:22:31;100918.38;;;11.23;100.00
58622;BME280;44389;51.578;5.456;2022-10-16T00:24:56;100914.06;;;11.22;100.00
58622;BME280;44389;51.578;5.456;2022-10-16T00:27:21;100916.44;;;11.15;100.00
58622;BME280;44389;51.578;5.456;2022-10-16T00:29:51;100919.03;;;11.15;100.00
58622;BME280;44389;51.578;5.456;2022-10-16T00:32:17;100914.59;;;11.10;100.00
58622;BME280;44389;51.578;5.456;2022-10-16T00:34:43;100919.72;;;11.08;100.00
58622;BME280;44389;51.578;5.456;2022-10-16T00:37:08;100917.13;;;11.08;100.00
58622;BME280;44389;51.578;5.456;2022-10-16T00:39:33;100912.72;;;11.04;100.00
58622;BME280;44389;51.578;5.456;2022-10-16T00:41:59;100921.16;;;11.00;100.00
58622;BME280;44389;51.578;5.456;2022-10-16T00:47:15;100917.66;;;10.96;100.00
58622;BME280;44389;51.578;5.456;2022-10-16T00:49:42;100923.66;;;10.97;100.00
58622;BME280;44389;51.578;5.456;2022-10-16T00:52:08;100921.06;;;10.95;100.00
58622;BME280;44389;51.578;5.456;2022-10-16T00:54:33;100924.41;;;10.93;100.00
58622;BME280;44389;51.578;5.456;2022-10-16T00:57:04;100925.25;;;10.92;100.00
58622;BME280;44389;51.578;5.456;2022-10-16T00:59:33;100927.78;;;10.90;100.00
58622;BME280;44389;51.578;5.456;2022-10-16T01:01:59;100924.31;;;10.90;100.00
58622;BME280;44389;51.578;5.456;2022-10-16T01:04:25;100920.78;;;10.86;100.00
58622;BME280;44389;51.578;5.456;2022-10-16T01:07:02;100922.50;;;10.87;100.00
58622;BME280;44389;51.578;5.456;2022-10-16T01:12:15;100914.66;;;10.82;100.00
58622;BME280;44389;51.578;5.456;2022-10-16T01:15:03;100921.50;;;10.82;100.00
58622;BME280;44389;51.578;5.456;2022-10-16T01:17:41;100922.34;;;10.81;100.00
58622;BME280;44389;51.578;5.456;2022-10-16T01:20:14;100913.72;;;10.80;100.00
58622;BME280;44389;51.578;5.456;2022-10-16T01:28:21;100935.19;;;10.79;100.00
58622;BME280;44389;51.578;5.456;2022-10-16T01:30:52;100933.53;;;10.81;100.00
58622;BME280;44389;51.578;5.456;2022-10-16T01:33:24;100929.16;;;10.79;100.00
58622;BME280;44389;51.578;5.456;2022-10-16T01:35:59;100929.31;;;10.83;100.00
58622;BME280;44389;51.578;5.456;2022-10-16T01:38:35;100912.97;;;10.84;100.00
58622;BME280;44389;51.578;5.456;2022-10-16T01:41:07;100923.50;;;10.91;100.00
58622;BME280;44389;51.578;5.456;2022-10-16T01:43:38;100915.75;;;10.91;100.00
58622;BME280;44389;51.578;5.456;2022-10-16T01:46:06;100922.66;;;10.92;100.00
58622;BME280;44389;51.578;5.456;2022-10-16T01:48:34;100928.66;;;10.91;100.00
58622;BME280;44389;51.578;5.456;2022-10-16T01:51:07;100922.66;;;10.92;100.00
58622;BME280;44389;51.578;5.456;2022-10-16T01:53:34;100910.75;;;10.95;100.00
58622;BME280;44389;51.578;5.456;2022-10-16T01:56:00;100912.34;;;10.92;100.00
58622;BME280;44389;51.578;5.456;2022-10-16T01:58:27;100912.44;;;10.95;100.00
58622;BME280;44389;51.578;5.456;2022-10-16T02:00:56;100916.88;;;10.99;100.00
58622;BME280;44389;51.578;5.456;2022-10-16T02:03:21;100916.09;;;11.01;100.00
58622;BME280;44389;51.578;5.456;2022-10-16T02:05:55;100923.84;;;11.03;100.00
58622;BME280;44389;51.578;5.456;2022-10-16T02:08:23;100930.66;;;11.01;100.00
58622;BME280;44389;51.578;5.456;2022-10-16T02:10:49;100929.00;;;11.03;100.00
58622;BME280;44389;51.578;5.456;2022-10-16T02:13:25;100937.56;;;11.02;100.00
58622;BME280;44389;51.578;5.456;2022-10-16T02:15:52;100935.19;;;11.08;100.00
58622;BME280;44389;51.578;5.456;2022-10-16T02:18:18;100931.78;;;11.09;100.00
58622;BME280;44389;51.578;5.456;2022-10-16T02:20:53;100937.66;;;11.05;100.00
58622;BME280;44389;51.578;5.456;2022-10-16T02:23:35;100932.41;;;11.02;100.00
58622;BME280;44389;51.578;5.456;2022-10-16T02:26:07;100925.50;;;11.01;100.00
58622;BME280;44389;51.578;5.456;2022-10-16T02:28:41;100934.00;;;10.97;100.00
58622;BME280;44389;51.578;5.456;2022-10-16T02:31:11;100921.88;;;10.94;100.00
58622;BME280;44389;51.578;5.456;2022-10-16T02:33:40;100918.38;;;10.92;100.00
58622;BME280;44389;51.578;5.456;2022-10-16T02:36:07;100922.63;;;10.90;100.00
58622;BME280;44389;51.578;5.456;2022-10-16T02:38:33;100926.72;;;10.83;100.00
58622;BME280;44389;51.578;5.456;2022-10-16T02:40:59;100940.53;;;10.85;100.00
58622;BME280;44389;51.578;5.456;2022-10-16T02:43:25;100947.22;;;10.79;100.00
58622;BME280;44389;51.578;5.456;2022-10-16T02:45:51;100944.44;;;10.73;100.00
58622;BME280;44389;51.578;5.456;2022-10-16T02:48:16;100937.63;;;10.75;100.00
58622;BME280;44389;51.578;5.456;2022-10-16T02:50:42;100941.81;;;10.71;100.00
58622;BME280;44389;51.578;5.456;2022-10-16T02:53:07;100927.91;;;10.66;100.00
58622;BME280;44389;51.578;5.456;2022-10-16T02:55:32;100925.28;;;10.64;100.00
58622;BME280;44389;51.578;5.456;2022-10-16T02:57:58;100918.44;;;10.65;100.00
58622;BME280;44389;51.578;5.456;2022-10-16T03:00:23;100909.06;;;10.67;100.00
58622;BME280;44389;51.578;5.456;2022-10-16T03:02:49;100920.00;;;10.60;100.00
58622;BME280;44389;51.578;5.456;2022-10-16T03:05:14;100915.72;;;10.60;100.00
58622;BME280;44389;51.578;5.456;2022-10-16T03:07:40;100926.81;;;10.58;100.00
58622;BME280;44389;51.578;5.456;2022-10-16T03:10:06;100934.59;;;10.59;100.00
58622;BME280;44389;51.578;5.456;2022-10-16T03:12:32;100925.97;;;10.59;100.00
58622;BME280;44389;51.578;5.456;2022-10-16T03:14:57;100936.09;;;10.52;100.00
58622;BME280;44389;51.578;5.456;2022-10-16T03:17:23;100937.94;;;10.57;100.00
58622;BME280;44389;51.578;5.456;2022-10-16T03:19:49;100932.84;;;10.58;100.00
58622;BME280;44389;51.578;5.456;2022-10-16T03:22:14;100941.44;;;10.59;100.00
58622;BME280;44389;51.578;5.456;2022-10-16T03:24:39;100950.91;;;10.60;100.00
58622;BME280;44389;51.578;5.456;2022-10-16T03:27:05;100951.84;;;10.62;100.00
58622;BME280;44389;51.578;5.456;2022-10-16T03:29:31;100953.59;;;10.63;100.00
58622;BME280;44389;51.578;5.456;2022-10-16T03:31:57;100960.47;;;10.64;100.00
58622;BME280;44389;51.578;5.456;2022-10-16T03:34:22;100970.78;;;10.64;100.00
58622;BME280;44389;51.578;5.456;2022-10-16T03:36:47;100969.06;;;10.63;100.00
58622;BME280;44389;51.578;5.456;2022-10-16T03:39:13;100965.56;;;10.61;100.00
58622;BME280;44389;51.578;5.456;2022-10-16T03:41:38;100963.03;;;10.62;100.00
58622;BME280;44389;51.578;5.456;2022-10-16T03:44:03;100964.00;;;10.66;100.00
58622;BME280;44389;51.578;5.456;2022-10-16T03:46:29;100962.34;;;10.68;100.00
58622;BME280;44389;51.578;5.456;2022-10-16T03:48:54;100962.34;;;10.68;100.00
58622;BME280;44389;51.578;5.456;2022-10-16T03:51:19;100960.69;;;10.70;100.00
58622;BME280;44389;51.578;5.456;2022-10-16T03:53:45;100962.41;;;10.69;100.00
58622;BME280;44389;51.578;5.456;2022-10-16T03:56:10;100968.38;;;10.68;100.00
58622;BME280;44389;51.578;5.456;2022-10-16T03:58:35;100971.72;;;10.66;100.00
58622;BME280;44389;51.578;5.456;2022-10-16T04:01:00;100974.41;;;10.69;100.00
58622;BME280;44389;51.578;5.456;2022-10-16T04:03:26;100975.31;;;10.71;100.00
58622;BME280;44389;51.578;5.456;2022-10-16T04:05:51;100983.16;;;10.74;100.00
58622;BME280;44389;51.578;5.456;2022-10-16T04:08:16;100974.59;;;10.75;100.00
58622;BME280;44389;51.578;5.456;2022-10-16T04:10:43;100975.41;;;10.74;100.00
58622;BME280;44389;51.578;5.456;2022-10-16T04:13:08;100976.34;;;10.76;100.00
58622;BME280;44389;51.578;5.456;2022-10-16T04:15:34;100981.59;;;10.79;100.00
58622;BME280;44389;51.578;5.456;2022-10-16T04:17:59;100971.22;;;10.78;100.00
58622;BME280;44389;51.578;5.456;2022-10-16T04:20:24;100981.69;;;10.82;100.00
58622;BME280;44389;51.578;5.456;2022-10-16T04:22:50;100979.94;;;10.81;100.00
58622;BME280;44389;51.578;5.456;2022-10-16T04:25:15;100981.69;;;10.82;100.00
58622;BME280;44389;51.578;5.456;2022-10-16T04:27:40;100987.72;;;10.83;100.00
58622;BME280;44389;51.578;5.456;2022-10-16T04:30:06;100986.84;;;10.82;100.00
58622;BME280;44389;51.578;5.456;2022-10-16T04:32:32;100977.38;;;10.81;100.00
58622;BME280;44389;51.578;5.456;2022-10-16T04:34:57;100982.47;;;10.80;100.00
58622;BME280;44389;51.578;5.456;2022-10-16T04:37:26;100985.13;;;10.83;100.00
58622;BME280;44389;51.578;5.456;2022-10-16T04:39:52;100994.59;;;10.82;100.00
58622;BME280;44389;51.578;5.456;2022-10-16T04:42:18;100994.53;;;10.81;100.00
58622;BME280;44389;51.578;5.456;2022-10-16T04:44:43;100995.44;;;10.83;100.00
58622;BME280;44389;51.578;5.456;2022-10-16T04:47:08;100998.00;;;10.81;100.00
58622;BME280;44389;51.578;5.456;2022-10-16T04:49:34;101008.25;;;10.80;100.00
58622;BME280;44389;51.578;5.456;2022-10-16T04:51:59;101014.28;;;10.80;100.00
58622;BME280;44389;51.578;5.456;2022-10-16T04:54:24;101012.44;;;10.76;100.00
58622;BME280;44389;51.578;5.456;2022-10-16T04:56:50;101013.31;;;10.77;100.00
58622;BME280;44389;51.578;5.456;2022-10-16T04:59:18;101010.69;;;10.75;100.00
58622;BME280;44389;51.578;5.456;2022-10-16T05:01:44;101016.72;;;10.76;100.00
58622;BME280;44389;51.578;5.456;2022-10-16T05:04:10;101015.84;;;10.75;100.00
58622;BME280;44389;51.578;5.456;2022-10-16T05:06:36;101027.81;;;10.73;100.00
58622;BME280;44389;51.578;5.456;2022-10-16T05:09:02;101027.66;;;10.68;100.00
58622;BME280;44389;51.578;5.456;2022-10-16T05:11:27;101028.53;;;10.69;100.00
58622;BME280;44389;51.578;5.456;2022-10-16T05:13:52;101038.13;;;10.73;100.00
58622;BME280;44389;51.578;5.456;2022-10-16T05:16:18;101040.59;;;10.70;100.00
58622;BME280;44389;51.578;5.456;2022-10-16T05:18:43;101039.69;;;10.68;100.00
58622;BME280;44389;51.578;5.456;2022-10-16T05:21:08;101032.78;;;10.67;100.00
58622;BME280;44389;51.578;5.456;2022-10-16T05:23:34;101034.53;;;10.68;100.00
58622;BME280;44389;51.578;5.456;2022-10-16T05:25:59;101032.78;;;10.67;100.00
58622;BME280;44389;51.578;5.456;2022-10-16T05:28:26;101044.72;;;10.65;100.00
58622;BME280;44389;51.578;5.456;2022-10-16T05:30:51;101043.84;;;10.64;100.00
58622;BME280;44389;51.578;5.456;2022-10-16T05:33:19;101051.38;;;10.58;100.00
58622;BME280;44389;51.578;5.456;2022-10-16T05:35:44;101060.09;;;10.62;100.00
58622;BME280;44389;51.578;5.456;2022-10-16T05:38:10;101065.25;;;10.62;100.00
58622;BME280;44389;51.578;5.456;2022-10-16T05:40:35;101067.84;;;10.62;100.00
58622;BME280;44389;51.578;5.456;2022-10-16T05:43:00;101071.09;;;10.56;100.00
58622;BME280;44389;51.578;5.456;2022-10-16T05:45:25;101084.81;;;10.55;100.00
58622;BME280;44389;51.578;5.456;2022-10-16T05:47:51;101084.84;;;10.57;100.00
58622;BME280;44389;51.578;5.456;2022-10-16T05:50:16;101088.19;;;10.54;100.00
58622;BME280;44389;51.578;5.456;2022-10-16T05:52:41;101093.97;;;10.47;100.00
58622;BME280;44389;51.578;5.456;2022-10-16T05:55:07;101097.53;;;10.50;100.00
58622;BME280;44389;51.578;5.456;2022-10-16T05:57:32;101110.28;;;10.46;100.00
58622;BME280;44389;51.578;5.456;2022-10-16T05:59:57;101114.44;;;10.42;100.00
58622;BME280;44389;51.578;5.456;2022-10-16T06:02:23;101119.47;;;10.39;100.00
58622;BME280;44389;51.578;5.456;2022-10-16T06:04:48;101120.97;;;10.34;100.00
58622;BME280;44389;51.578;5.456;2022-10-16T06:07:13;101122.72;;;10.35;100.00
58622;BME280;44389;51.578;5.456;2022-10-16T06:09:39;101126.13;;;10.34;100.00
58622;BME280;44389;51.578;5.456;2022-10-16T06:12:04;101128.81;;;10.35;100.00
58622;BME280;44389;51.578;5.456;2022-10-16T06:14:29;101136.59;;;10.37;100.00
58622;BME280;44389;51.578;5.456;2022-10-16T06:16:54;101136.44;;;10.34;100.00
58622;BME280;44389;51.578;5.456;2022-10-16T06:19:20;101140.66;;;10.32;100.00
58622;BME280;44389;51.578;5.456;2022-10-16T06:21:45;101139.97;;;10.36;100.00
58622;BME280;44389;51.578;5.456;2022-10-16T06:24:10;101139.84;;;10.33;100.00
58622;BME280;44389;51.578;5.456;2022-10-16T06:26:37;101147.34;;;10.27;100.00
58622;BME280;44389;51.578;5.456;2022-10-16T06:29:02;101151.06;;;10.35;100.00
58622;BME280;44389;51.578;5.456;2022-10-16T06:31:28;101153.72;;;10.36;100.00
58622;BME280;44389;51.578;5.456;2022-10-16T06:33:56;101153.66;;;10.35;100.00
58622;BME280;44389;51.578;5.456;2022-10-16T06:36:23;101159.78;;;10.37;100.00
58622;BME280;44389;51.578;5.456;2022-10-16T06:38:49;101166.59;;;10.36;100.00
58622;BME280;44389;51.578;5.456;2022-10-16T06:41:17;101174.25;;;10.35;100.00
58622;BME280;44389;51.578;5.456;2022-10-16T06:43:43;101171.13;;;10.42;100.00
58622;BME280;44389;51.578;5.456;2022-10-16T06:46:13;101170.34;;;10.45;100.00
58622;BME280;44389;51.578;5.456;2022-10-16T06:48:39;101174.72;;;10.47;100.00
58622;BME280;44389;51.578;5.456;2022-10-16T06:51:15;101188.53;;;10.49;100.00
58622;BME280;44389;51.578;5.456;2022-10-16T06:53:43;101186.13;;;10.54;100.00
58622;BME280;44389;51.578;5.456;2022-10-16T06:58:41;101193.41;;;10.66;100.00
58622;BME280;44389;51.578;5.456;2022-10-16T07:01:07;101189.28;;;10.71;100.00
58622;BME280;44389;51.578;5.456;2022-10-16T07:03:33;101191.34;;;10.81;100.00
58622;BME280;44389;51.578;5.456;2022-10-16T07:06:05;101203.75;;;10.92;100.00
58622;BME280;44389;51.578;5.456;2022-10-16T07:08:34;101207.56;;;11.03;100.00
58622;BME280;44389;51.578;5.456;2022-10-16T07:11:05;101211.38;;;11.14;100.00
58622;BME280;44389;51.578;5.456;2022-10-16T07:13:38;101221.19;;;11.25;100.00
58622;BME280;44389;51.578;5.456;2022-10-16T07:16:08;101223.22;;;11.35;100.00
58622;BME280;44389;51.578;5.456;2022-10-16T07:18:34;101221.81;;;11.45;100.00
58622;BME280;44389;51.578;5.456;2022-10-16T07:21:22;101224.63;;;11.52;100.00
58622;BME280;44389;51.578;5.456;2022-10-16T07:23:51;101230.16;;;11.63;100.00
58622;BME280;44389;51.578;5.456;2022-10-16T07:26:16;101240.72;;;11.71;100.00
58622;BME280;44389;51.578;5.456;2022-10-16T07:28:42;101241.81;;;11.79;100.00
58622;BME280;44389;51.578;5.456;2022-10-16T07:31:10;101248.88;;;11.85;100.00
58622;BME280;44389;51.578;5.456;2022-10-16T07:33:37;101256.09;;;11.95;100.00
58622;BME280;44389;51.578;5.456;2022-10-16T07:36:03;101260.69;;;12.04;100.00
58622;BME280;44389;51.578;5.456;2022-10-16T07:38:29;101261.88;;;12.15;100.00
58622;BME280;44389;51.578;5.456;2022-10-16T07:40:59;101262.19;;;12.26;100.00
58622;BME280;44389;51.578;5.456;2022-10-16T07:43:25;101261.66;;;12.38;100.00
58622;BME280;44389;51.578;5.456;2022-10-16T07:45:51;101267.19;;;12.50;100.00
58622;BME280;44389;51.578;5.456;2022-10-16T07:48:17;101269.28;;;12.64;100.00
58622;BME280;44389;51.578;5.456;2022-10-16T07:50:43;101285.22;;;12.79;100.00
58622;BME280;44389;51.578;5.456;2022-10-16T07:53:10;101277.03;;;12.94;100.00
58622;BME280;44389;51.578;5.456;2022-10-16T07:55:35;101291.16;;;13.07;100.00
58622;BME280;44389;51.578;5.456;2022-10-16T07:58:00;101288.16;;;13.24;100.00
58622;BME280;44389;51.578;5.456;2022-10-16T08:00:26;101293.34;;;13.25;100.00
58622;BME280;44389;51.578;5.456;2022-10-16T08:02:51;101289.38;;;13.37;100.00
58622;BME280;44389;51.578;5.456;2022-10-16T08:05:16;101299.16;;;13.48;100.00
58622;BME280;44389;51.578;5.456;2022-10-16T08:07:41;101302.84;;;13.58;100.00
58622;BME280;44389;51.578;5.456;2022-10-16T08:10:15;101309.66;;;13.55;100.00
58622;BME280;44389;51.578;5.456;2022-10-16T08:12:41;101303.75;;;13.60;100.00
58622;BME280;44389;51.578;5.456;2022-10-16T08:15:07;101312.41;;;13.61;100.00
58622;BME280;44389;51.578;5.456;2022-10-16T08:17:32;101324.69;;;13.70;100.00
58622;BME280;44389;51.578;5.456;2022-10-16T08:19:57;101332.63;;;13.77;100.00
58622;BME280;44389;51.578;5.456;2022-10-16T08:22:23;101337.31;;;13.91;100.00
58622;BME280;44389;51.578;5.456;2022-10-16T08:24:48;101345.94;;;13.91;100.00
58622;BME280;44389;51.578;5.456;2022-10-16T08:27:13;101341.84;;;14.01;99.43
58622;BME280;44389;51.578;5.456;2022-10-16T08:29:38;101339.53;;;14.13;98.98
58622;BME280;44389;51.578;5.456;2022-10-16T08:32:04;101339.53;;;14.13;98.48
58622;BME280;44389;51.578;5.456;2022-10-16T08:34:29;101344.88;;;14.21;96.49
58622;BME280;44389;51.578;5.456;2022-10-16T08:36:55;101353.69;;;14.28;97.52
58622;BME280;44389;51.578;5.456;2022-10-16T08:39:20;101349.53;;;14.35;96.28
58622;BME280;44389;51.578;5.456;2022-10-16T08:47:20;101361.66;;;14.77;95.17
58622;BME280;44389;51.578;5.456;2022-10-16T08:52:20;101360.31;;;14.96;92.40
58622;BME280;44389;51.578;5.456;2022-10-16T08:54:48;101364.84;;;15.06;91.53
58622;BME280;44389;51.578;5.456;2022-10-16T08:57:21;101371.94;;;15.13;89.56
58622;BME280;44389;51.578;5.456;2022-10-16T08:59:47;101372.16;;;15.26;90.83
58622;BME280;44389;51.578;5.456;2022-10-16T09:02:24;101369.06;;;15.45;90.38
58622;BME280;44389;51.578;5.456;2022-10-16T09:05:01;101371.81;;;15.55;88.54
58622;BME280;44389;51.578;5.456;2022-10-16T09:07:38;101377.94;;;15.58;87.02
58622;BME280;44389;51.578;5.456;2022-10-16T09:18:11;101394.13;;;16.51;85.88
58622;BME280;44389;51.578;5.456;2022-10-16T09:20:40;101391.22;;;16.93;80.58
58622;BME280;44389;51.578;5.456;2022-10-16T09:23:12;101400.88;;;16.99;78.44
58622;BME280;44389;51.578;5.456;2022-10-16T09:25:39;101404.50;;;17.12;78.86
58622;BME280;44389;51.578;5.456;2022-10-16T09:28:04;101411.88;;;17.56;77.79
58622;BME280;44389;51.578;5.456;2022-10-16T09:30:30;101398.69;;;17.38;75.30
58622;BME280;44389;51.578;5.456;2022-10-16T09:32:57;101408.97;;;17.27;74.94
58622;BME280;44389;51.578;5.456;2022-10-16T09:35:30;101403.00;;;17.37;74.02
58622;BME280;44389;51.578;5.456;2022-10-16T09:37:56;101410.06;;;17.49;73.69
58622;BME280;44389;51.578;5.456;2022-10-16T09:40:34;101420.53;;;17.51;76.57
58622;BME280;44389;51.578;5.456;2022-10-16T09:43:38;101420.56;;;17.57;76.69
58622;BME280;44389;51.578;5.456;2022-10-16T09:46:25;101413.63;;;17.56;76.72
58622;BME280;44389;51.578;5.456;2022-10-16T09:48:54;101415.19;;;17.38;73.13
58622;BME280;44389;51.578;5.456;2022-10-16T09:51:26;101412.91;;;16.91;74.67
58622;BME280;44389;51.578;5.456;2022-10-16T09:54:00;101419.69;;;17.55;75.34
58622;BME280;44389;51.578;5.456;2022-10-16T09:56:31;101419.06;;;17.81;73.62
58622;BME280;44389;51.578;5.456;2022-10-16T09:59:00;101424.25;;;17.77;71.50
58622;BME280;44389;51.578;5.456;2022-10-16T10:01:38;101429.44;;;17.77;72.85
58622;BME280;44389;51.578;5.456;2022-10-16T10:04:05;101427.13;;;18.07;71.52
58622;BME280;44389;51.578;5.456;2022-10-16T10:06:34;101420.44;;;18.46;69.62
58622;BME280;44389;51.578;5.456;2022-10-16T10:11:46;101421.72;;;19.33;69.75
58622;BME280;44389;51.578;5.456;2022-10-16T10:14:49;101425.16;;;19.26;67.95
58622;BME280;44389;51.578;5.456;2022-10-16T10:17:26;101430.44;;;19.29;65.96
58622;BME280;44389;51.578;5.456;2022-10-16T10:19:54;101432.19;;;19.42;65.28
58622;BME280;44389;51.578;5.456;2022-10-16T10:25:00;101433.94;;;19.45;63.46
58622;BME280;44389;51.578;5.456;2022-10-16T10:28:00;101443.53;;;19.57;64.03
58622;BME280;44389;51.578;5.456;2022-10-16T10:36:21;101453.19;;;20.40;64.47
58622;BME280;44389;51.578;5.456;2022-10-16T10:39:00;101451.38;;;20.75;61.21
58622;BME280;44389;51.578;5.456;2022-10-16T10:44:26;101453.13;;;20.82;59.71
58622;BME280;44389;51.578;5.456;2022-10-16T10:46:56;101458.44;;;20.32;58.36
58622;BME280;44389;51.578;5.456;2022-10-16T10:49:31;101451.41;;;20.56;58.75
58622;BME280;44389;51.578;5.456;2022-10-16T10:54:49;101456.63;;;20.67;57.31
58622;BME280;44389;51.578;5.456;2022-10-16T10:57:27;101448.78;;;20.51;57.74
58622;BME280;44389;51.578;5.456;2022-10-16T11:00:01;101454.91;;;20.75;58.36
58622;BME280;44389;51.578;5.456;2022-10-16T11:03:07;101456.38;;;21.30;59.68
58622;BME280;44389;51.578;5.456;2022-10-16T11:05:51;101467.66;;;21.48;56.85
58622;BME280;44389;51.578;5.456;2022-10-16T11:11:20;101459.50;;;21.96;55.48
58622;BME280;44389;51.578;5.456;2022-10-16T11:14:00;101468.78;;;22.40;52.90
58622;BME280;44389;51.578;5.456;2022-10-16T11:16:43;101468.28;;;22.87;49.42
58622;BME280;44389;51.578;5.456;2022-10-16T11:19:39;101473.56;;;22.87;52.90
58622;BME280;44389;51.578;5.456;2022-10-16T11:22:10;101465.72;;;22.82;49.67
58622;BME280;44389;51.578;5.456;2022-10-16T11:24:53;101465.03;;;22.63;52.14
58622;BME280;44389;51.578;5.456;2022-10-16T11:27:43;101457.53;;;22.21;51.22
58622;BME280;44389;51.578;5.456;2022-10-16T11:30:29;101464.84;;;21.85;52.58
58622;BME280;44389;51.578;5.456;2022-10-16T11:38:14;101474.09;;;20.60;54.71
58622;BME280;44389;51.578;5.456;2022-10-16T11:40:43;101478.50;;;20.15;53.59
58622;BME280;44389;51.578;5.456;2022-10-16T11:43:25;101476.69;;;19.73;56.90
58622;BME280;44389;51.578;5.456;2022-10-16T11:45:55;101472.25;;;19.34;57.85
58622;BME280;44389;51.578;5.456;2022-10-16T11:48:38;101482.84;;;19.86;58.62
58622;BME280;44389;51.578;5.456;2022-10-16T11:51:16;101472.13;;;21.30;54.97
58622;BME280;44389;51.578;5.456;2022-10-16T11:53:51;101487.72;;;21.64;53.22
58622;BME280;44389;51.578;5.456;2022-10-16T11:56:20;101488.47;;;21.80;50.55
58622;BME280;44389;51.578;5.456;2022-10-16T11:58:59;101485.34;;;22.44;52.34
58622;BME280;44389;51.578;5.456;2022-10-16T12:01:33;101483.09;;;22.92;50.52
58622;BME280;44389;51.578;5.456;2022-10-16T12:09:04;101468.28;;;23.55;47.12
58622;BME280;44389;51.578;5.456;2022-10-16T12:11:38;101469.09;;;23.60;46.33
58622;BME280;44389;51.578;5.456;2022-10-16T12:14:07;101478.06;;;23.45;47.03
58622;BME280;44389;51.578;5.456;2022-10-16T12:19:30;101488.41;;;21.90;49.19
58622;BME280;44389;51.578;5.456;2022-10-16T12:22:01;101497.16;;;21.92;48.81
58622;BME280;44389;51.578;5.456;2022-10-16T12:24:32;101498.13;;;21.80;49.56
58622;BME280;44389;51.578;5.456;2022-10-16T12:26:58;101491.44;;;21.15;49.19
58622;BME280;44389;51.578;5.456;2022-10-16T12:29:32;101489.59;;;21.34;51.33
58622;BME280;44389;51.578;5.456;2022-10-16T12:31:58;101490.50;;;21.32;49.78
58622;BME280;44389;51.578;5.456;2022-10-16T12:34:38;101487.94;;;21.13;51.22
58622;BME280;44389;51.578;5.456;2022-10-16T12:37:22;101489.47;;;21.62;51.70
58622;BME280;44389;51.578;5.456;2022-10-16T12:39:49;101493.19;;;21.13;49.80
58622;BME280;44389;51.578;5.456;2022-10-16T12:42:23;101491.56;;;20.58;50.52
58622;BME280;44389;51.578;5.456;2022-10-16T12:44:49;101485.47;;;19.96;51.25
58622;BME280;44389;51.578;5.456;2022-10-16T12:47:37;101482.78;;;19.60;55.20
58622;BME280;44389;51.578;5.456;2022-10-16T12:50:03;101488.69;;;19.08;55.57
58622;BME280;44389;51.578;5.456;2022-10-16T12:52:48;101489.53;;;19.05;58.37
58622;BME280;44389;51.578;5.456;2022-10-16T12:55:18;101492.16;;;18.99;58.81
58622;BME280;44389;51.578;5.456;2022-10-16T13:00:40;101487.16;;;19.75;54.92
58622;BME280;44389;51.578;5.456;2022-10-16T13:11:30;101477.97;;;22.83;47.18
58622;BME280;44389;51.578;5.456;2022-10-16T13:14:15;101477.72;;;23.01;47.53
58622;BME280;44389;51.578;5.456;2022-10-16T13:19:37;101497.63;;;22.45;48.89
58622;BME280;44389;51.578;5.456;2022-10-16T13:22:22;101492.84;;;21.81;48.71
58622;BME280;44389;51.578;5.456;2022-10-16T13:30:27;101493.28;;;19.76;53.90
58622;BME280;44389;51.578;5.456;2022-10-16T13:33:00;101494.91;;;19.33;55.39
58622;BME280;44389;51.578;5.456;2022-10-16T13:35:29;101501.78;;;19.13;56.28
58622;BME280;44389;51.578;5.456;2022-10-16T13:38:16;101507.88;;;19.12;57.71
58622;BME280;44389;51.578;5.456;2022-10-16T13:40:50;101513.78;;;18.83;59.91
58622;BME280;44389;51.578;5.456;2022-10-16T13:43:18;101513.66;;;18.61;59.28
58622;BME280;44389;51.578;5.456;2022-10-16T13:45:56;101517.91;;;18.51;60.98
58622;BME280;44389;51.578;5.456;2022-10-16T13:48:22;101511.81;;;18.48;62.21
58622;BME280;44389;51.578;5.456;2022-10-16T13:51:02;101508.25;;;18.41;61.08
58622;BME280;44389;51.578;5.456;2022-10-16T13:53:30;101508.13;;;18.21;62.88
58622;BME280;44389;51.578;5.456;2022-10-16T13:55:56;101504.59;;;18.17;62.89
58622;BME280;44389;51.578;5.456;2022-10-16T13:58:21;101502.84;;;18.15;62.11
58622;BME280;44389;51.578;5.456;2022-10-16T14:01:02;101513.41;;;18.27;63.39
58622;BME280;44389;51.578;5.456;2022-10-16T14:03:29;101505.75;;;18.56;61.43
58622;BME280;44389;51.578;5.456;2022-10-16T14:05:58;101514.50;;;18.57;60.37
58622;BME280;44389;51.578;5.456;2022-10-16T14:08:25;101510.19;;;18.62;59.51
58622;BME280;44389;51.578;5.456;2022-10-16T14:10:54;101516.25;;;18.64;59.88
58622;BME280;44389;51.578;5.456;2022-10-16T14:13:26;101513.59;;;18.55;60.48
58622;BME280;44389;51.578;5.456;2022-10-16T14:15:53;101510.00;;;18.40;62.16